Time;durP1;ratioP1;P1;durP2;ratioP2;P2;SDS_P1;SDS_P2;PMS_P1;PMS_P2;Temp;Humidity;BMP_temperature;BMP_pressure;BME280_temperature;BME280_humidity;BME280_pressure;Samples;Min_cycle;Max_cycle;Signal;HPM_P1;HPM_P2
2022/12/12 00:01:17;;;;;;;28.50;11.30;;;0.10;99.90;;;;;;5115848;28;20023;-87
2022/12/12 00:03:43;;;;;;;26.03;10.47;;;0.00;99.90;;;;;;5115070;28;20072;-85
2022/12/12 00:06:09;;;;;;;28.13;11.80;;;0.00;99.90;;;;;;5115090;28;20118;-84
2022/12/12 00:08:34;;;;;;;29.63;12.53;;;0.00;99.90;;;;;;5115501;28;20490;-83
2022/12/12 00:11:00;;;;;;;26.80;11.37;;;0.00;99.90;;;;;;5096867;28;20028;-83
2022/12/12 00:13:25;;;;;;;30.17;12.03;;;0.00;99.90;;;;;;5101124;28;20031;-84
2022/12/12 00:15:51;;;;;;;32.40;12.30;;;-0.10;99.90;;;;;;5115292;28;20044;-84
2022/12/12 00:18:17;;;;;;;33.60;12.97;;;-0.10;99.90;;;;;;5115341;28;20036;-87
2022/12/12 00:20:51;;;;;;;28.40;11.17;;;-0.10;99.90;;;;;;5115381;28;20023;-84
2022/12/12 00:23:16;;;;;;;26.47;12.17;;;-0.10;99.90;;;;;;5115038;28;20058;-87
2022/12/12 00:25:42;;;;;;;30.13;11.97;;;-0.10;99.90;;;;;;5114738;28;20069;-85
2022/12/12 00:28:07;;;;;;;28.43;12.03;;;0.00;99.90;;;;;;5114815;28;20034;-86
2022/12/12 00:30:33;;;;;;;30.53;12.70;;;-0.10;99.90;;;;;;5105917;28;20355;-88
2022/12/12 00:32:58;;;;;;;32.50;12.77;;;0.00;99.90;;;;;;5112807;28;20031;-85
2022/12/12 00:35:24;;;;;;;27.87;12.07;;;0.00;99.90;;;;;;5114374;28;20032;-83
2022/12/12 00:37:50;;;;;;;29.13;12.40;;;0.00;99.90;;;;;;5115966;28;20023;-84
2022/12/12 00:40:16;;;;;;;32.40;12.97;;;0.00;99.90;;;;;;5114168;28;20137;-81
2022/12/12 00:42:41;;;;;;;31.80;13.07;;;0.00;99.90;;;;;;5113300;28;20024;-82
2022/12/12 00:45:07;;;;;;;30.80;13.13;;;0.00;99.90;;;;;;5114687;28;20031;-82
2022/12/12 00:47:33;;;;;;;31.40;13.17;;;0.00;99.90;;;;;;5114509;28;20047;-87
2022/12/12 00:49:58;;;;;;;33.50;13.17;;;0.00;99.90;;;;;;5117704;28;20024;-87
2022/12/12 00:52:24;;;;;;;28.70;12.83;;;0.00;99.90;;;;;;5121451;28;20027;-87
2022/12/12 00:54:50;;;;;;;31.03;13.13;;;0.00;99.90;;;;;;5114907;28;20027;-85
2022/12/12 00:57:15;;;;;;;28.17;12.47;;;-0.10;99.90;;;;;;5116083;28;20032;-83
2022/12/12 00:59:41;;;;;;;35.00;12.73;;;0.00;99.90;;;;;;5115493;28;20506;-84
2022/12/12 01:02:07;;;;;;;34.50;13.97;;;0.00;99.90;;;;;;5115512;28;20030;-83
2022/12/12 01:04:32;;;;;;;34.93;13.43;;;0.00;99.90;;;;;;5114013;28;20070;-85
2022/12/12 01:06:58;;;;;;;32.13;13.70;;;0.00;99.90;;;;;;5115531;28;20119;-87
2022/12/12 01:09:23;;;;;;;34.37;13.10;;;0.00;99.90;;;;;;5114672;28;20023;-87
2022/12/12 01:11:49;;;;;;;30.37;12.73;;;0.00;99.90;;;;;;5115827;28;20020;-86
2022/12/12 01:14:15;;;;;;;33.13;13.33;;;0.00;99.90;;;;;;5115009;28;20024;-81
2022/12/12 01:16:40;;;;;;;32.90;13.10;;;0.00;99.90;;;;;;5112877;28;20064;-83
2022/12/12 01:19:06;;;;;;;30.73;13.03;;;-0.10;99.90;;;;;;5113956;28;20043;-82
2022/12/12 01:21:31;;;;;;;34.43;13.57;;;-0.10;99.90;;;;;;5112478;28;20030;-84
2022/12/12 01:23:57;;;;;;;33.03;13.90;;;-0.20;99.90;;;;;;5114299;28;20031;-89
2022/12/12 01:26:23;;;;;;;35.27;13.43;;;-0.20;99.90;;;;;;5114195;28;20035;-84
2022/12/12 01:28:50;;;;;;;32.10;13.47;;;-0.20;99.90;;;;;;5116439;28;20535;-87
2022/12/12 01:31:16;;;;;;;30.87;12.97;;;-0.30;99.90;;;;;;5108523;28;20059;-85
2022/12/12 01:33:44;;;;;;;32.53;13.60;;;-0.30;99.90;;;;;;5114054;28;20023;-87
2022/12/12 01:36:15;;;;;;;31.43;13.40;;;-0.30;99.90;;;;;;5114601;28;20027;-90
2022/12/12 01:38:49;;;;;;;31.33;12.60;;;-0.40;99.90;;;;;;5113851;28;20173;-85
2022/12/12 01:41:15;;;;;;;30.33;13.70;;;-0.40;99.90;;;;;;5094233;28;20027;-89
2022/12/12 01:43:41;;;;;;;34.63;13.87;;;-0.40;99.90;;;;;;5097851;28;20020;-90
2022/12/12 01:46:29;;;;;;;31.97;13.53;;;-0.40;99.90;;;;;;5114552;28;20074;-91
2022/12/12 01:48:59;;;;;;;31.40;12.70;;;-0.40;99.90;;;;;;5113586;28;20015;-84
2022/12/12 01:51:27;;;;;;;34.20;14.57;;;-0.40;99.90;;;;;;5100984;28;20028;-87
2022/12/12 01:54:00;;;;;;;31.40;12.40;;;-0.50;99.90;;;;;;5114606;28;20223;-84
2022/12/12 01:56:26;;;;;;;33.83;13.23;;;-0.50;99.90;;;;;;5114451;28;20031;-91
2022/12/12 01:58:52;;;;;;;37.87;13.57;;;-0.50;99.90;;;;;;5114983;28;20107;-91
2022/12/12 02:01:19;;;;;;;36.50;13.43;;;-0.50;99.90;;;;;;5102683;28;20027;-85
2022/12/12 02:03:47;;;;;;;34.50;14.07;;;-0.50;99.90;;;;;;5106150;28;20027;-90
2022/12/12 02:06:17;;;;;;;32.00;13.47;;;-0.40;99.90;;;;;;5115754;28;20034;-91
2022/12/12 02:08:45;;;;;;;36.77;13.53;;;-0.50;99.90;;;;;;5114162;28;20028;-85
2022/12/12 02:11:11;;;;;;;34.33;14.00;;;-0.50;99.90;;;;;;5116498;28;20020;-85
2022/12/12 02:13:37;;;;;;;30.27;12.23;;;-0.40;99.90;;;;;;5113794;28;20114;-87
2022/12/12 02:16:11;;;;;;;33.23;12.97;;;-0.40;99.90;;;;;;5109514;28;20080;-86
2022/12/12 02:18:55;;;;;;;29.93;12.33;;;-0.40;99.90;;;;;;5121648;28;20091;-90
2022/12/12 02:21:57;;;;;;;37.47;13.77;;;-0.50;99.90;;;;;;5113340;28;20023;-87
2022/12/12 02:24:29;;;;;;;30.42;12.73;;;-0.50;99.90;;;;;;5115792;28;20522;-89
2022/12/12 02:27:19;;;;;;;22.73;9.52;;;-0.50;99.90;;;;;;5106206;28;20022;-93
2022/12/12 02:30:02;;;;;;;31.13;12.47;;;-0.50;99.90;;;;;;5110594;28;20024;-89
2022/12/12 02:32:41;;;;;;;34.83;13.00;;;-0.60;99.90;;;;;;5101477;28;20039;-85
2022/12/12 02:35:21;;;;;;;34.27;13.57;;;-0.60;99.90;;;;;;5112341;28;20031;-84
2022/12/12 02:38:04;;;;;;;34.00;12.73;;;-0.70;99.90;;;;;;5113571;28;20023;-88
2022/12/12 02:40:45;;;;;;;30.80;12.80;;;-0.70;99.90;;;;;;5113568;28;20107;-85
2022/12/12 02:43:33;;;;;;;31.63;12.47;;;-0.70;99.90;;;;;;5113634;28;20042;-94
2022/12/12 02:46:13;;;;;;;32.63;12.80;;;-0.70;99.90;;;;;;5093246;28;20112;-83
2022/12/12 02:48:49;;;;;;;32.37;13.27;;;-0.70;99.90;;;;;;5108527;28;20028;-82
2022/12/12 02:51:18;;;;;;;34.77;13.40;;;-0.70;99.90;;;;;;5113548;28;20027;-86
2022/12/12 02:53:43;;;;;;;32.77;13.33;;;-0.70;99.90;;;;;;5113422;28;20015;-85
2022/12/12 02:56:40;;;;;;;30.63;12.40;;;-0.80;99.90;;;;;;5112910;28;20380;-85
2022/12/12 02:59:06;;;;;;;31.60;13.13;;;-0.90;99.90;;;;;;5112066;28;20050;-85
2022/12/12 03:02:01;;;;;;;32.37;13.63;;;-0.90;99.90;;;;;;5112960;28;20110;-84
2022/12/12 03:07:47;;;;;;;32.77;13.30;;;-0.90;99.90;;;;;;5097238;28;20047;-88
2022/12/12 03:10:18;;;;;;;33.20;13.47;;;-0.90;99.90;;;;;;5110756;28;20473;-85
2022/12/12 03:13:15;;;;;;;35.50;13.57;;;-0.90;99.90;;;;;;5116750;28;20031;-84
2022/12/12 03:16:32;;;;;;;37.53;14.83;;;-1.00;99.90;;;;;;5115665;28;20158;-85
2022/12/12 03:19:13;;;;;;;33.07;13.83;;;-1.00;99.90;;;;;;5083426;28;20091;-83
2022/12/12 03:21:41;;;;;;;28.77;12.07;;;-1.00;99.90;;;;;;5108601;28;20115;-89
2022/12/12 03:24:18;;;;;;;32.90;13.73;;;-1.10;99.90;;;;;;5103992;28;20016;-88
2022/12/12 03:27:14;;;;;;;31.37;13.47;;;-1.10;99.90;;;;;;5115655;28;20169;-86
2022/12/12 03:30:00;;;;;;;36.17;13.87;;;-1.10;99.90;;;;;;5101708;28;20038;-87
2022/12/12 03:32:32;;;;;;;29.23;13.13;;;-1.20;99.90;;;;;;5116226;28;20027;-84
2022/12/12 03:35:06;;;;;;;33.47;13.00;;;-1.20;99.90;;;;;;5113906;28;20035;-83
2022/12/12 03:37:39;;;;;;;33.63;14.13;;;-1.10;99.90;;;;;;5115622;28;20024;-89
2022/12/12 03:40:18;;;;;;;35.37;12.53;;;-1.00;99.90;;;;;;5120298;28;20024;-83
2022/12/12 03:42:46;;;;;;;34.03;14.10;;;-1.10;99.90;;;;;;5115535;28;20124;-81
2022/12/12 03:45:41;;;;;;;28.53;12.83;;;-1.10;99.90;;;;;;5116204;28;20123;-81
2022/12/12 03:48:10;;;;;;;32.10;12.43;;;-1.10;99.90;;;;;;5109538;28;20036;-80
2022/12/12 03:50:54;;;;;;;32.43;13.93;;;-1.20;99.90;;;;;;5117526;28;20372;-80
2022/12/12 03:53:39;;;;;;;29.80;13.17;;;-1.20;99.90;;;;;;5116719;28;20031;-79
2022/12/12 03:56:10;;;;;;;36.40;14.03;;;-1.20;99.90;;;;;;5116309;28;20028;-80
2022/12/12 03:58:47;;;;;;;31.45;13.55;;;-1.30;99.90;;;;;;5115362;28;20020;-79
2022/12/12 04:01:14;;;;;;;33.80;12.97;;;-1.40;99.90;;;;;;5117245;28;20165;-82
2022/12/12 04:03:58;;;;;;;34.57;13.47;;;-1.30;99.90;;;;;;5115246;28;20028;-81
2022/12/12 04:06:37;;;;;;;35.60;13.13;;;-1.40;99.90;;;;;;5117077;28;20066;-85
2022/12/12 04:15:26;;;;;;;32.60;12.87;;;-1.40;99.90;;;;;;5117769;28;20046;-84
2022/12/12 04:18:30;;;;;;;31.47;12.70;;;-1.40;99.90;;;;;;5116007;28;20043;-83
2022/12/12 04:24:31;;;;;;;30.07;12.30;;;-1.40;99.90;;;;;;5116985;28;20046;-84
2022/12/12 04:27:19;;;;;;;28.97;10.73;;;-1.40;99.90;;;;;;5114569;28;20076;-84
2022/12/12 04:29:47;;;;;;;22.30;9.03;;;-1.50;99.90;;;;;;5117577;28;20055;-81
2022/12/12 04:32:28;;;;;;;20.53;8.77;;;-1.50;99.90;;;;;;5115995;28;20050;-80
2022/12/12 04:35:02;;;;;;;25.07;9.43;;;-1.60;99.90;;;;;;5115192;28;20031;-80
2022/12/12 04:37:32;;;;;;;19.27;8.97;;;-1.60;99.90;;;;;;5114465;28;20031;-86
2022/12/12 04:40:01;;;;;;;22.43;9.53;;;-1.60;99.90;;;;;;5114884;28;20032;-79
2022/12/12 04:42:31;;;;;;;21.70;9.73;;;-1.60;99.90;;;;;;5114660;28;20024;-86
2022/12/12 04:45:22;;;;;;;26.50;11.07;;;-1.60;99.90;;;;;;5115218;28;20092;-80
2022/12/12 04:47:52;;;;;;;24.43;10.27;;;-1.60;99.90;;;;;;5114751;28;20163;-81
2022/12/12 04:50:21;;;;;;;24.40;10.33;;;-1.70;99.90;;;;;;5114969;28;20035;-81
2022/12/12 04:52:49;;;;;;;26.23;10.10;;;-1.70;99.90;;;;;;5114441;28;20057;-82
2022/12/12 04:55:31;;;;;;;24.20;11.17;;;-1.70;99.90;;;;;;5115475;28;20031;-82
2022/12/12 04:57:56;;;;;;;27.58;10.85;;;-1.70;99.90;;;;;;5115714;28;20050;-82
2022/12/12 05:00:24;;;;;;;23.80;10.27;;;-1.70;99.90;;;;;;5114599;28;20080;-81
2022/12/12 05:03:01;;;;;;;23.43;9.33;;;-1.70;99.90;;;;;;5114728;28;20012;-81
2022/12/12 05:05:40;;;;;;;22.37;9.30;;;-1.80;99.90;;;;;;5114030;28;20116;-85
2022/12/12 05:08:11;;;;;;;22.63;9.60;;;-1.80;99.90;;;;;;5114373;28;20035;-82
2022/12/12 05:10:45;;;;;;;24.47;10.97;;;-1.80;99.90;;;;;;5113820;28;20023;-82
2022/12/12 05:13:16;;;;;;;25.47;10.33;;;-1.90;99.90;;;;;;5114346;28;20031;-81
2022/12/12 05:15:42;;;;;;;27.25;10.82;;;-1.80;99.90;;;;;;5113266;28;20031;-83
2022/12/12 05:18:10;;;;;;;24.70;9.93;;;-1.80;99.90;;;;;;5114305;28;20027;-82
2022/12/12 05:20:35;;;;;;;22.57;9.50;;;-1.80;99.90;;;;;;5114003;28;20020;-83
2022/12/12 05:23:01;;;;;;;23.53;9.47;;;-1.80;99.90;;;;;;5114584;28;20031;-83
2022/12/12 05:25:26;;;;;;;23.87;9.50;;;-1.80;99.90;;;;;;5114260;28;20430;-82
2022/12/12 05:27:52;;;;;;;22.50;8.83;;;-1.80;99.90;;;;;;5113175;28;20035;-83
2022/12/12 05:30:18;;;;;;;20.60;8.70;;;-1.80;99.90;;;;;;5114369;28;20063;-81
2022/12/12 05:32:43;;;;;;;19.80;8.50;;;-1.90;99.90;;;;;;5113447;28;20024;-82
2022/12/12 05:35:09;;;;;;;23.60;8.63;;;-1.80;99.90;;;;;;5114127;28;20076;-81
2022/12/12 05:37:35;;;;;;;22.93;9.07;;;-1.90;99.90;;;;;;5114694;28;20027;-82
2022/12/12 05:40:01;;;;;;;19.60;8.53;;;-1.90;99.90;;;;;;5114236;28;20511;-81
2022/12/12 05:42:27;;;;;;;19.67;8.53;;;-1.90;99.90;;;;;;5114967;28;20023;-82
2022/12/12 05:44:52;;;;;;;20.20;8.67;;;-1.90;99.90;;;;;;5112689;28;20034;-82
2022/12/12 05:47:18;;;;;;;19.47;8.40;;;-1.90;99.90;;;;;;5114758;28;20529;-81
2022/12/12 05:49:44;;;;;;;23.03;9.00;;;-1.90;99.90;;;;;;5113289;28;20020;-82
2022/12/12 05:52:10;;;;;;;19.27;8.30;;;-1.80;99.90;;;;;;5113968;28;20119;-82
2022/12/12 05:54:35;;;;;;;25.13;9.13;;;-1.80;99.90;;;;;;5114357;28;20541;-82
2022/12/12 05:57:01;;;;;;;19.83;8.30;;;-1.70;99.90;;;;;;5114877;28;20027;-83
2022/12/12 05:59:27;;;;;;;19.17;8.50;;;-1.80;99.90;;;;;;5113949;28;20490;-83
2022/12/12 06:01:52;;;;;;;22.67;8.90;;;-1.80;99.90;;;;;;5113054;28;20214;-83
2022/12/12 06:04:18;;;;;;;22.10;8.90;;;-1.80;99.90;;;;;;5113855;28;20027;-83
2022/12/12 06:06:45;;;;;;;21.70;8.30;;;-1.80;99.90;;;;;;5113173;28;20421;-83
2022/12/12 06:09:11;;;;;;;19.03;8.30;;;-1.80;99.90;;;;;;5113516;28;20035;-82
2022/12/12 06:11:37;;;;;;;18.13;8.27;;;-1.80;99.90;;;;;;5113388;28;20473;-82
2022/12/12 06:14:03;;;;;;;23.67;8.37;;;-1.80;99.90;;;;;;5113883;28;20035;-82
2022/12/12 06:16:28;;;;;;;19.80;8.53;;;-1.80;99.90;;;;;;5113162;28;20052;-82
2022/12/12 06:18:55;;;;;;;16.97;7.80;;;-1.80;99.90;;;;;;5113382;28;20058;-82
2022/12/12 06:21:21;;;;;;;18.30;8.03;;;-1.80;99.90;;;;;;5113473;28;20115;-82
2022/12/12 06:23:47;;;;;;;20.67;7.83;;;-1.70;99.90;;;;;;5112953;28;20480;-82
2022/12/12 06:26:15;;;;;;;18.43;7.33;;;-1.70;99.90;;;;;;5114531;28;20119;-82
2022/12/12 06:28:41;;;;;;;15.27;6.83;;;-1.70;99.90;;;;;;5113136;28;20038;-80
2022/12/12 06:31:08;;;;;;;14.10;6.97;;;-1.70;99.90;;;;;;5112921;28;20027;-79
2022/12/12 06:33:34;;;;;;;15.70;6.97;;;-1.70;99.90;;;;;;5113581;28;20019;-83
2022/12/12 06:36:06;;;;;;;15.47;7.57;;;-1.70;99.90;;;;;;5112743;28;20023;-81
2022/12/12 06:38:34;;;;;;;15.82;6.60;;;-1.70;99.90;;;;;;5113287;28;20441;-83
2022/12/12 06:41:04;;;;;;;17.00;7.47;;;-1.70;99.90;;;;;;5117433;28;20031;-81
2022/12/12 06:43:30;;;;;;;17.47;6.83;;;-1.80;99.90;;;;;;5117577;28;20034;-81
2022/12/12 06:46:01;;;;;;;14.00;7.13;;;-1.80;99.90;;;;;;5116450;28;20031;-81
2022/12/12 06:48:26;;;;;;;16.37;6.83;;;-1.80;99.90;;;;;;5117252;28;20023;-81
2022/12/12 06:50:52;;;;;;;15.70;6.33;;;-1.80;99.90;;;;;;5117208;28;20032;-81
2022/12/12 06:53:18;;;;;;;14.67;5.97;;;-1.70;99.90;;;;;;5116784;28;20032;-81
2022/12/12 06:55:43;;;;;;;17.40;6.77;;;-1.80;99.90;;;;;;5116359;28;20028;-81
2022/12/12 06:58:09;;;;;;;12.73;5.83;;;-1.80;99.90;;;;;;5116938;28;20028;-81
2022/12/12 07:00:35;;;;;;;13.07;6.00;;;-1.70;99.90;;;;;;5116692;28;20047;-83
2022/12/12 07:03:01;;;;;;;13.00;6.03;;;-1.70;99.90;;;;;;5116478;28;20076;-82
2022/12/12 07:05:27;;;;;;;12.20;6.13;;;-1.70;99.90;;;;;;5116574;28;20028;-81
2022/12/12 07:07:52;;;;;;;11.77;5.50;;;-1.70;99.90;;;;;;5116025;28;20067;-80
2022/12/12 07:10:18;;;;;;;14.07;5.40;;;-1.70;99.90;;;;;;5116604;28;20027;-80
2022/12/12 07:12:44;;;;;;;13.03;5.27;;;-1.80;99.90;;;;;;5116102;28;20055;-81
2022/12/12 07:15:10;;;;;;;12.43;5.57;;;-1.80;99.90;;;;;;5116355;28;20042;-81
2022/12/12 07:17:35;;;;;;;11.20;5.50;;;-1.80;99.90;;;;;;5115823;28;20555;-86
2022/12/12 07:20:01;;;;;;;12.37;5.33;;;-1.70;99.90;;;;;;5115799;28;20030;-81
2022/12/12 07:22:27;;;;;;;14.07;5.33;;;-1.70;99.90;;;;;;5117485;28;20102;-82
2022/12/12 07:24:52;;;;;;;14.70;6.33;;;-1.70;99.90;;;;;;5115251;28;20031;-81
2022/12/12 07:27:18;;;;;;;13.43;5.30;;;-1.70;99.90;;;;;;5116194;28;20473;-81
2022/12/12 07:29:44;;;;;;;16.43;6.93;;;-1.70;99.90;;;;;;5115489;28;20023;-80
2022/12/12 07:32:09;;;;;;;12.50;6.37;;;-1.70;99.90;;;;;;5116176;28;20019;-80
2022/12/12 07:34:35;;;;;;;14.20;5.97;;;-1.70;99.90;;;;;;5116674;28;20027;-84
2022/12/12 07:37:01;;;;;;;17.33;6.90;;;-1.70;99.90;;;;;;5115952;28;20486;-80
2022/12/12 07:39:32;;;;;;;17.00;6.70;;;-1.70;99.90;;;;;;5116261;28;20023;-80
2022/12/12 07:41:58;;;;;;;15.83;6.80;;;-1.70;99.90;;;;;;5115672;28;20030;-80
2022/12/12 07:44:24;;;;;;;17.90;7.80;;;-1.70;99.90;;;;;;5117074;28;20023;-80
2022/12/12 07:46:50;;;;;;;18.37;8.07;;;-1.60;99.90;;;;;;5115674;28;20031;-80
2022/12/12 07:49:16;;;;;;;19.67;8.10;;;-1.60;99.90;;;;;;5116367;28;20119;-80
2022/12/12 07:51:42;;;;;;;22.13;9.23;;;-1.60;99.90;;;;;;5115026;28;20056;-82
2022/12/12 07:54:07;;;;;;;17.57;7.83;;;-1.60;99.90;;;;;;5116462;28;20032;-81
2022/12/12 07:56:33;;;;;;;18.03;7.53;;;-1.60;99.90;;;;;;5115697;28;20111;-80
2022/12/12 07:58:58;;;;;;;19.13;8.17;;;-1.60;99.90;;;;;;5115430;28;20030;-81
2022/12/12 08:01:26;;;;;;;23.27;8.37;;;-1.50;99.90;;;;;;5117094;28;20035;-81
2022/12/12 08:03:53;;;;;;;21.83;9.20;;;-1.50;99.90;;;;;;5115227;28;20030;-81
2022/12/12 08:06:20;;;;;;;22.47;8.63;;;-1.50;99.90;;;;;;5116889;28;20042;-81
2022/12/12 08:08:47;;;;;;;21.97;9.33;;;-1.50;99.90;;;;;;5115855;28;20028;-81
2022/12/12 08:11:14;;;;;;;22.67;9.47;;;-1.50;99.90;;;;;;5115753;28;20019;-80
2022/12/12 08:13:41;;;;;;;23.47;10.03;;;-1.50;99.90;;;;;;5114962;28;20035;-85
2022/12/12 08:16:14;;;;;;;21.50;8.80;;;-1.50;99.90;;;;;;5115128;28;20052;-80
2022/12/12 08:18:40;;;;;;;24.83;9.37;;;-1.40;99.90;;;;;;5115369;28;20114;-85
2022/12/12 08:21:07;;;;;;;24.27;9.83;;;-1.30;99.90;;;;;;5115498;28;20024;-81
2022/12/12 08:23:33;;;;;;;24.30;10.47;;;-1.30;99.90;;;;;;5116596;28;20016;-81
2022/12/12 08:26:03;;;;;;;20.07;9.60;;;-1.30;99.90;;;;;;5114807;28;20031;-81
2022/12/12 08:28:29;;;;;;;21.93;9.00;;;-1.30;99.90;;;;;;5115536;28;20042;-81
2022/12/12 08:30:54;;;;;;;27.20;10.90;;;-1.20;99.90;;;;;;5114318;28;20023;-81
2022/12/12 08:33:20;;;;;;;20.43;9.20;;;-1.20;99.90;;;;;;5115366;28;20016;-81
2022/12/12 08:35:46;;;;;;;22.87;9.17;;;-1.20;99.90;;;;;;5114307;28;20032;-82
2022/12/12 08:38:12;;;;;;;21.13;9.67;;;-1.30;99.90;;;;;;5116097;28;20031;-81
2022/12/12 08:40:38;;;;;;;23.30;10.63;;;-1.20;99.90;;;;;;5115055;28;20024;-82
2022/12/12 08:43:03;;;;;;;25.50;10.77;;;-1.30;99.90;;;;;;5115817;28;20028;-83
2022/12/12 08:45:29;;;;;;;30.97;11.00;;;-1.20;99.90;;;;;;5114489;28;20472;-81
2022/12/12 08:47:55;;;;;;;27.60;10.77;;;-1.20;99.90;;;;;;5114311;28;20085;-82
2022/12/12 08:50:20;;;;;;;27.60;11.60;;;-1.10;99.90;;;;;;5114622;28;20019;-80
2022/12/12 08:52:46;;;;;;;28.27;11.03;;;-1.10;99.90;;;;;;5115224;28;20027;-82
2022/12/12 08:55:12;;;;;;;27.50;11.53;;;-1.10;99.90;;;;;;5115479;28;20031;-82
2022/12/12 08:57:37;;;;;;;27.03;11.20;;;-1.00;99.90;;;;;;5114633;28;20028;-83
2022/12/12 09:00:04;;;;;;;27.70;10.67;;;-1.00;99.90;;;;;;5113895;28;20027;-82
2022/12/12 09:02:29;;;;;;;24.67;11.07;;;-1.00;99.90;;;;;;5113669;28;20035;-81
2022/12/12 09:04:55;;;;;;;28.83;11.17;;;-1.00;99.90;;;;;;5113839;28;20465;-82
2022/12/12 09:07:21;;;;;;;27.40;11.93;;;-0.90;99.90;;;;;;5115455;28;20066;-82
2022/12/12 09:09:46;;;;;;;28.37;12.43;;;-0.90;99.90;;;;;;5113651;28;20469;-82
2022/12/12 09:12:12;;;;;;;28.50;12.23;;;-0.90;99.90;;;;;;5115254;28;20019;-82
2022/12/12 09:14:38;;;;;;;32.50;12.20;;;-0.90;99.90;;;;;;5114133;28;20537;-81
2022/12/12 09:17:03;;;;;;;32.53;12.30;;;-0.90;99.90;;;;;;5113133;28;20583;-80
2022/12/12 09:19:29;;;;;;;28.47;12.13;;;-0.80;99.90;;;;;;5114007;28;20023;-84
2022/12/12 09:21:55;;;;;;;30.20;12.57;;;-0.80;99.90;;;;;;5113308;28;20032;-83
2022/12/12 09:24:22;;;;;;;30.23;12.03;;;-0.80;99.90;;;;;;5114428;28;20030;-82
2022/12/12 09:26:48;;;;;;;31.87;12.27;;;-0.80;99.90;;;;;;5113555;28;20027;-82
2022/12/12 09:29:14;;;;;;;35.37;13.20;;;-0.70;99.90;;;;;;5115014;28;20112;-82
2022/12/12 09:31:39;;;;;;;36.07;12.67;;;-0.70;99.90;;;;;;5105407;28;20048;-83
2022/12/12 09:34:05;;;;;;;31.37;12.50;;;-0.70;99.90;;;;;;5107999;28;20027;-82
2022/12/12 09:36:30;;;;;;;28.00;11.70;;;-0.70;99.90;;;;;;5114635;28;20098;-80
2022/12/12 09:38:56;;;;;;;26.70;10.00;;;-0.70;99.90;;;;;;5112565;28;20088;-81
2022/12/12 09:41:25;;;;;;;28.97;11.53;;;-0.60;99.90;;;;;;5113515;28;20034;-82
2022/12/12 09:44:08;;;;;;;30.67;12.13;;;-0.60;99.90;;;;;;5104519;28;20032;-83
2022/12/12 09:46:49;;;;;;;29.97;11.50;;;-0.50;99.90;;;;;;5105346;28;20034;-79
2022/12/12 09:49:55;;;;;;;28.13;11.77;;;-0.50;99.90;;;;;;5112951;28;20038;-79
2022/12/12 09:52:33;;;;;;;28.97;11.87;;;-0.50;99.90;;;;;;5013860;28;20237;-82
2022/12/12 09:55:01;;;;;;;31.47;11.87;;;-0.50;99.90;;;;;;5030057;28;20064;-82
2022/12/12 09:57:32;;;;;;;31.97;12.43;;;-0.50;99.90;;;;;;5030777;28;20036;-81
2022/12/12 10:00:03;;;;;;;31.00;11.87;;;-0.50;99.90;;;;;;5030834;28;20021;-82
2022/12/12 10:02:50;;;;;;;32.50;12.73;;;-0.40;99.90;;;;;;5023946;28;20547;-80
2022/12/12 10:05:41;;;;;;;28.47;11.53;;;-0.40;99.90;;;;;;5026073;28;20033;-82
2022/12/12 10:08:22;;;;;;;34.57;13.00;;;-0.40;99.90;;;;;;5031185;28;20022;-82
2022/12/12 10:10:52;;;;;;;29.30;12.30;;;-0.40;99.90;;;;;;5031069;28;20034;-83
2022/12/12 10:13:23;;;;;;;32.50;12.53;;;-0.40;99.90;;;;;;5027878;28;20497;-84
2022/12/12 10:15:55;;;;;;;30.83;11.73;;;-0.30;99.90;;;;;;5029787;28;20048;-83
2022/12/12 10:18:33;;;;;;;24.35;9.68;;;-0.30;99.90;;;;;;5031277;28;20025;-83
2022/12/12 10:21:03;;;;;;;28.53;11.47;;;-0.30;99.90;;;;;;5030643;28;20064;-80
2022/12/12 10:23:55;;;;;;;33.93;12.80;;;-0.30;99.90;;;;;;5085478;28;20042;-80
2022/12/12 10:26:24;;;;;;;32.53;12.88;;;-0.30;99.90;;;;;;5101344;28;20027;-80
2022/12/12 10:28:54;;;;;;;29.97;13.00;;;-0.30;99.90;;;;;;5091606;28;20118;-80
2022/12/12 10:31:39;;;;;;;35.43;12.90;;;-0.20;99.90;;;;;;5088904;28;20107;-80
2022/12/12 10:34:17;;;;;;;32.57;13.10;;;-0.20;99.90;;;;;;5095727;28;20102;-81
2022/12/12 10:37:21;;;;;;;36.17;12.83;;;-0.20;99.90;;;;;;5111973;28;20486;-81
2022/12/12 10:39:58;;;;;;;34.47;12.30;;;-0.20;99.90;;;;;;5084937;28;20032;-80
2022/12/12 10:43:02;;;;;;;32.83;13.53;;;-0.20;99.90;;;;;;5092560;28;20354;-80
2022/12/12 10:45:36;;;;;;;33.53;13.73;;;-0.20;99.90;;;;;;5108456;28;20083;-80
2022/12/12 10:48:02;;;;;;;31.53;12.67;;;-0.10;99.90;;;;;;5091589;28;20062;-80
2022/12/12 10:50:36;;;;;;;30.33;12.87;;;0.00;99.90;;;;;;5100425;28;20494;-80
2022/12/12 10:53:04;;;;;;;33.23;12.93;;;0.00;99.90;;;;;;5100099;28;20020;-81
2022/12/12 10:55:48;;;;;;;34.70;14.23;;;0.00;99.90;;;;;;5092858;28;20093;-80
2022/12/12 10:58:15;;;;;;;33.23;13.23;;;0.10;99.90;;;;;;5097334;28;20023;-81
2022/12/12 11:00:44;;;;;;;31.37;12.97;;;0.10;99.90;;;;;;5111705;28;20020;-81
2022/12/12 11:03:49;;;;;;;38.37;14.33;;;0.10;99.90;;;;;;5103879;28;20106;-82
2022/12/12 11:06:24;;;;;;;35.23;12.77;;;0.10;99.90;;;;;;5111141;28;20031;-80
2022/12/12 11:08:59;;;;;;;32.63;13.33;;;0.20;99.90;;;;;;5109035;28;20028;-81
2022/12/12 11:11:27;;;;;;;31.47;13.17;;;0.30;99.90;;;;;;5096068;28;20032;-79
2022/12/12 11:13:59;;;;;;;30.17;12.33;;;0.30;99.90;;;;;;5110185;28;20055;-82
2022/12/12 11:16:42;;;;;;;37.30;13.10;;;0.30;99.90;;;;;;5104410;28;20076;-80
2022/12/12 11:19:17;;;;;;;27.40;12.73;;;0.30;99.90;;;;;;5091424;28;20093;-84
2022/12/12 11:21:44;;;;;;;32.73;12.57;;;0.30;99.90;;;;;;5091889;28;20086;-82
2022/12/12 11:24:16;;;;;;;29.33;12.20;;;0.20;99.90;;;;;;5091747;28;20074;-80
2022/12/12 11:26:54;;;;;;;36.78;14.27;;;0.20;99.90;;;;;;5097592;28;20024;-81
2022/12/12 11:29:48;;;;;;;29.07;12.53;;;0.20;99.90;;;;;;5115782;28;20028;-79
2022/12/12 11:32:18;;;;;;;28.73;12.97;;;0.30;99.90;;;;;;5108896;28;20059;-84
2022/12/12 11:34:49;;;;;;;31.37;13.50;;;0.40;99.90;;;;;;5105511;28;20115;-85
2022/12/12 11:37:18;;;;;;;31.37;11.90;;;0.30;99.90;;;;;;5109604;28;20114;-86
2022/12/12 11:39:45;;;;;;;33.67;13.60;;;0.40;99.90;;;;;;5116013;28;20062;-91
2022/12/12 11:42:19;;;;;;;31.80;12.93;;;0.40;99.90;;;;;;5101755;28;20024;-90
2022/12/12 11:44:48;;;;;;;29.30;12.53;;;0.50;99.90;;;;;;5095280;28;20244;-84
2022/12/12 11:47:26;;;;;;;29.80;12.77;;;0.50;99.90;;;;;;5097428;28;20035;-91
2022/12/12 11:49:58;;;;;;;29.13;13.20;;;0.60;99.90;;;;;;5095545;28;20119;-90
2022/12/12 11:52:28;;;;;;;30.92;12.77;;;0.60;99.90;;;;;;5095275;28;20117;-90
2022/12/12 11:54:54;;;;;;;32.93;13.00;;;0.70;99.90;;;;;;5096341;28;20057;-83
2022/12/12 11:57:51;;;;;;;32.57;13.10;;;0.90;99.90;;;;;;5095672;28;20020;-90
2022/12/12 12:00:22;;;;;;;33.47;13.50;;;1.00;99.90;;;;;;5101708;28;20058;-87
2022/12/12 12:02:56;;;;;;;29.03;12.83;;;1.10;99.90;;;;;;5109646;28;20019;-84
2022/12/12 12:05:30;;;;;;;32.70;13.03;;;1.10;99.90;;;;;;5095565;28;20024;-86
2022/12/12 12:08:34;;;;;;;30.83;13.50;;;1.00;99.90;;;;;;5094978;28;20373;-86
2022/12/12 12:11:15;;;;;;;34.20;13.57;;;1.10;99.90;;;;;;5095187;28;20035;-84
2022/12/12 12:13:50;;;;;;;30.00;12.97;;;1.20;99.90;;;;;;5115057;28;20492;-87
2022/12/12 12:16:27;;;;;;;32.07;13.27;;;1.30;99.90;;;;;;5127422;28;20124;-90
2022/12/12 12:19:12;;;;;;;30.87;13.00;;;1.50;99.90;;;;;;5128789;28;20044;-90
2022/12/12 12:21:54;;;;;;;29.97;13.03;;;1.60;99.90;;;;;;5127376;28;20066;-83
2022/12/12 12:24:36;;;;;;;32.80;13.35;;;1.60;99.90;;;;;;5119940;27;20027;-93
2022/12/12 12:27:19;;;;;;;31.25;12.93;;;1.70;99.90;;;;;;5111349;28;20063;-87
2022/12/12 12:30:05;;;;;;;29.70;13.17;;;1.80;99.90;;;;;;5100954;28;20065;-85
2022/12/12 12:32:48;;;;;;;32.27;13.30;;;1.80;99.90;;;;;;5108848;28;20526;-88
2022/12/12 12:35:31;;;;;;;28.40;12.10;;;1.80;99.90;;;;;;5119373;28;20027;-88
2022/12/12 12:38:36;;;;;;;30.20;12.37;;;1.90;99.90;;;;;;5115894;28;20019;-89
2022/12/12 12:41:20;;;;;;;31.17;11.13;;;1.90;99.90;;;;;;5114898;28;20035;-89
2022/12/12 12:44:04;;;;;;;25.87;11.07;;;2.00;99.90;;;;;;5111204;28;20051;-85
2022/12/12 12:46:58;;;;;;;27.80;11.07;;;2.40;99.90;;;;;;5115786;28;20042;-84
2022/12/12 12:49:27;;;;;;;33.87;13.47;;;2.60;99.90;;;;;;5114180;28;20035;-85
2022/12/12 12:51:59;;;;;;;31.80;12.23;;;2.70;99.90;;;;;;5094862;27;20072;-86
2022/12/12 12:54:31;;;;;;;29.25;12.38;;;2.90;99.90;;;;;;5095676;28;20051;-88
2022/12/12 12:57:10;;;;;;;28.08;11.38;;;3.10;99.90;;;;;;5095344;28;20032;-85
2022/12/12 12:59:44;;;;;;;28.23;12.40;;;3.20;99.90;;;;;;5094443;28;20027;-85
2022/12/12 13:02:27;;;;;;;29.47;12.67;;;3.40;99.90;;;;;;5098636;28;20059;-84
2022/12/12 13:05:05;;;;;;;26.60;11.80;;;3.50;99.90;;;;;;5113787;28;20023;-84
2022/12/12 13:07:42;;;;;;;29.23;11.83;;;3.40;99.90;;;;;;5117308;28;20039;-90
2022/12/12 13:10:26;;;;;;;27.73;12.17;;;3.30;99.90;;;;;;5127826;28;20016;-93